Time;durP1;ratioP1;P1;durP2;ratioP2;P2;SDS_P1;SDS_P2;PMS_P1;PMS_P2;Temp;Humidity;BMP_temperature;BMP_pressure;BME280_temperature;BME280_humidity;BME280_pressure;Samples;Min_cycle;Max_cycle;Signal;HPM_P1;HPM_P2
2022/08/20 00:00:17;;;;;;;5.35;2.95;;;19.00;99.90;;;;;;5023806;28;20037;-77
2022/08/20 00:02:46;;;;;;;9.63;3.83;;;18.90;99.90;;;;;;5056488;28;20090;-79
2022/08/20 00:05:14;;;;;;;6.45;3.65;;;19.00;99.90;;;;;;5056398;28;20046;-75
2022/08/20 00:07:40;;;;;;;5.53;3.70;;;18.90;99.90;;;;;;5056638;28;20085;-79
2022/08/20 00:10:07;;;;;;;6.10;3.55;;;18.90;99.90;;;;;;5055987;28;20040;-76
2022/08/20 00:12:34;;;;;;;5.60;3.50;;;18.90;99.90;;;;;;5056270;28;20036;-78
2022/08/20 00:15:00;;;;;;;4.25;3.13;;;18.90;99.90;;;;;;5039531;28;20105;-75
2022/08/20 00:17:30;;;;;;;5.32;3.58;;;18.80;99.90;;;;;;5056144;28;20040;-75
2022/08/20 00:19:56;;;;;;;4.05;2.85;;;18.80;99.90;;;;;;5056202;28;20036;-79
2022/08/20 00:22:22;;;;;;;5.45;3.05;;;18.80;99.90;;;;;;5039488;28;20044;-78
2022/08/20 00:24:47;;;;;;;3.72;2.63;;;18.80;99.90;;;;;;5056126;28;20060;-75
2022/08/20 00:27:13;;;;;;;6.38;3.17;;;18.70;99.90;;;;;;5022973;28;20431;-74
2022/08/20 00:29:39;;;;;;;6.35;3.33;;;18.70;99.90;;;;;;5039388;28;20032;-75
2022/08/20 00:32:04;;;;;;;5.75;3.47;;;18.70;99.90;;;;;;5039313;28;20483;-76
2022/08/20 00:34:30;;;;;;;4.80;3.15;;;18.70;99.90;;;;;;5022678;28;20497;-75
2022/08/20 00:36:56;;;;;;;4.47;3.15;;;18.60;99.90;;;;;;5056136;28;20500;-75
2022/08/20 00:39:21;;;;;;;4.47;3.20;;;18.60;99.90;;;;;;5055629;28;20116;-76
2022/08/20 00:41:47;;;;;;;5.75;3.17;;;18.60;99.90;;;;;;5039154;28;20041;-75
2022/08/20 00:44:20;;;;;;;4.70;3.42;;;18.50;99.90;;;;;;5055611;28;20040;-74
2022/08/20 00:46:47;;;;;;;5.55;3.40;;;18.50;99.90;;;;;;5055666;28;20044;-77
2022/08/20 00:49:21;;;;;;;4.47;3.13;;;18.50;99.90;;;;;;5055542;28;20052;-73
2022/08/20 00:52:12;;;;;;;6.30;3.65;;;18.40;99.90;;;;;;5055578;28;20102;-73
2022/08/20 00:54:48;;;;;;;4.57;3.67;;;18.40;99.90;;;;;;5055049;28;20049;-74
2022/08/20 00:57:42;;;;;;;5.18;3.05;;;18.40;99.90;;;;;;5055410;28;20048;-77
2022/08/20 01:00:16;;;;;;;3.67;2.83;;;18.40;99.90;;;;;;5055357;28;20047;-78
2022/08/20 01:02:42;;;;;;;5.38;3.47;;;18.40;99.90;;;;;;5055385;28;20028;-77
2022/08/20 01:05:09;;;;;;;4.88;3.03;;;18.40;99.90;;;;;;5055336;28;20036;-74
2022/08/20 01:07:37;;;;;;;7.78;3.97;;;18.40;99.90;;;;;;5022221;28;20036;-73
2022/08/20 01:10:11;;;;;;;5.88;3.30;;;18.40;99.90;;;;;;5022302;28;20438;-77
2022/08/20 01:12:39;;;;;;;7.03;3.30;;;18.40;99.90;;;;;;5055166;28;20067;-78
2022/08/20 01:15:08;;;;;;;5.25;3.60;;;18.40;99.90;;;;;;5039001;28;20119;-78
2022/08/20 01:17:38;;;;;;;4.88;3.45;;;18.40;99.90;;;;;;5055462;28;20094;-73
2022/08/20 01:20:09;;;;;;;4.22;3.15;;;18.30;99.90;;;;;;5054589;28;20037;-74
2022/08/20 01:26:03;;;;;;;4.97;3.40;;;18.30;99.90;;;;;;5055118;28;20082;-73
2022/08/20 01:28:42;;;;;;;8.50;3.67;;;18.30;99.90;;;;;;5055338;28;20059;-74
2022/08/20 01:31:13;;;;;;;5.35;3.50;;;18.20;99.90;;;;;;5055259;28;20511;-74
2022/08/20 01:39:32;;;;;;;4.82;3.05;;;18.10;99.90;;;;;;5071383;28;20079;-79
2022/08/20 01:42:14;;;;;;;5.35;3.13;;;18.10;99.90;;;;;;5055278;28;20082;-78
2022/08/20 01:44:43;;;;;;;6.35;3.38;;;18.10;99.90;;;;;;5055248;28;20487;-78
2022/08/20 01:47:22;;;;;;;4.00;2.95;;;18.10;99.90;;;;;;5038155;28;20097;-74
2022/08/20 01:49:52;;;;;;;4.25;2.90;;;18.10;99.90;;;;;;5038816;28;20487;-74
2022/08/20 01:52:24;;;;;;;6.40;3.17;;;18.10;99.90;;;;;;5054797;28;20041;-78
2022/08/20 01:54:51;;;;;;;8.40;3.50;;;18.00;99.90;;;;;;5054707;28;20370;-74
2022/08/20 01:57:19;;;;;;;5.15;3.10;;;18.00;99.90;;;;;;5055169;28;20122;-79
2022/08/20 01:59:46;;;;;;;4.68;3.38;;;18.00;99.90;;;;;;5055076;28;20090;-74
2022/08/20 02:02:12;;;;;;;5.30;3.65;;;18.00;99.90;;;;;;5055028;28;20521;-75
2022/08/20 02:04:39;;;;;;;4.57;3.10;;;17.90;99.90;;;;;;5038390;28;20036;-77
2022/08/20 02:07:11;;;;;;;7.38;3.20;;;17.90;99.90;;;;;;5054711;28;20045;-79
2022/08/20 02:09:38;;;;;;;5.07;3.22;;;17.90;99.90;;;;;;5054966;28;20102;-78
2022/08/20 02:12:07;;;;;;;5.78;3.70;;;17.80;99.90;;;;;;5054616;28;20040;-79
2022/08/20 02:14:34;;;;;;;3.95;2.75;;;17.90;99.90;;;;;;5054750;28;20045;-77
2022/08/20 02:17:00;;;;;;;7.28;2.97;;;17.70;99.90;;;;;;5054779;28;20036;-77
2022/08/20 02:19:40;;;;;;;4.43;3.10;;;17.80;99.90;;;;;;5038147;28;20087;-75
2022/08/20 02:22:33;;;;;;;4.55;3.10;;;17.70;99.90;;;;;;5054911;28;20491;-78
2022/08/20 02:24:59;;;;;;;5.15;3.05;;;17.80;99.90;;;;;;5054651;28;20481;-77
2022/08/20 02:27:25;;;;;;;6.90;3.20;;;17.90;99.90;;;;;;5038207;28;20098;-78
2022/08/20 02:29:51;;;;;;;5.85;3.17;;;17.80;99.90;;;;;;5054773;28;20048;-78
2022/08/20 02:32:18;;;;;;;4.22;2.80;;;17.80;99.90;;;;;;5056398;28;20041;-78
2022/08/20 02:34:44;;;;;;;5.82;3.28;;;17.90;99.90;;;;;;5025235;28;20091;-74
2022/08/20 02:37:15;;;;;;;6.53;3.42;;;;;;;;;;5041784;28;20072;-77
2022/08/20 02:39:41;;;;;;;;;;;;;;;;;;5041927;28;20406;-73
2022/08/20 02:42:08;;;;;;;3.63;2.67;;;;;;;;;;5057993;28;19916;-77
2022/08/20 02:44:34;;;;;;;4.32;2.70;;;;;;;;;;5041435;28;20079;-78
2022/08/20 02:47:00;;;;;;;5.20;2.60;;;;;;;;;;5058166;28;20044;-78
2022/08/20 02:49:27;;;;;;;3.58;2.80;;;;;;;;;;5057902;28;20403;-74
2022/08/20 02:51:53;;;;;;;4.00;3.00;;;;;;;;;;5057756;28;20127;-73
2022/08/20 02:54:19;;;;;;;7.70;3.00;;;17.40;99.90;;;;;;5041092;28;20040;-77
2022/08/20 02:56:45;;;;;;;4.32;3.05;;;;;;;;;;5041442;28;20400;-74
2022/08/20 02:59:10;;;;;;;6.85;2.70;;;17.30;99.90;;;;;;5024987;28;20043;-75
2022/08/20 03:01:37;;;;;;;4.40;2.97;;;;;;;;;;5057719;28;20040;-78
2022/08/20 03:04:04;;;;;;;4.13;2.80;;;;;;;;;;5057598;28;20048;-75
2022/08/20 03:06:30;;;;;;;5.05;2.65;;;;;;;;;;5040873;28;20049;-78
2022/08/20 03:08:56;;;;;;;5.20;2.80;;;;;;;;;;5040939;28;20043;-74
2022/08/20 03:11:22;;;;;;;6.38;3.20;;;;;;;;;;5057485;28;20040;-78
2022/08/20 03:13:48;;;;;;;3.90;2.80;;;17.10;99.90;;;;;;5040726;28;20439;-77
2022/08/20 03:16:14;;;;;;;6.03;3.35;;;;;;;;;;5041204;28;20195;-74
2022/08/20 03:18:45;;;;;;;4.47;3.00;;;17.10;99.90;;;;;;5040821;28;20044;-78
2022/08/20 03:21:11;;;;;;;4.18;2.35;;;17.60;99.90;;;;;;5057338;28;20051;-75
2022/08/20 03:23:39;;;;;;;6.95;3.63;;;17.20;99.90;;;;;;5024550;28;20123;-79
2022/08/20 03:26:10;;;;;;;4.55;2.65;;;17.10;99.90;;;;;;5040414;28;20095;-75
2022/08/20 03:28:36;;;;;;;6.30;3.55;;;17.50;99.90;;;;;;5040557;28;20044;-77
2022/08/20 03:31:03;;;;;;;3.70;2.47;;;17.20;99.90;;;;;;5057138;28;20131;-78
2022/08/20 03:33:30;;;;;;;5.18;2.92;;;17.20;99.90;;;;;;5057124;28;20047;-75
2022/08/20 03:35:56;;;;;;;4.80;3.08;;;17.20;99.90;;;;;;5057072;28;20044;-78
2022/08/20 03:38:22;;;;;;;5.50;2.83;;;17.10;99.90;;;;;;5056813;28;20101;-79
2022/08/20 03:40:48;;;;;;;5.00;3.00;;;17.30;99.90;;;;;;5056971;28;20035;-73
2022/08/20 03:43:15;;;;;;;3.67;2.65;;;17.20;99.90;;;;;;5056633;28;20040;-78
2022/08/20 03:45:42;;;;;;;5.55;2.42;;;17.10;99.90;;;;;;5023792;28;20107;-79
2022/08/20 03:48:11;;;;;;;4.85;2.58;;;17.20;99.90;;;;;;5040549;28;20166;-75
2022/08/20 03:50:41;;;;;;;6.60;3.15;;;17.00;99.90;;;;;;5057019;28;20048;-77
2022/08/20 03:53:09;;;;;;;5.18;2.67;;;17.00;99.90;;;;;;5039956;28;20564;-74
2022/08/20 03:55:35;;;;;;;5.80;2.70;;;17.00;99.90;;;;;;5040031;28;20193;-78
2022/08/20 03:58:06;;;;;;;7.53;3.08;;;17.40;99.90;;;;;;5039930;28;20384;-79
2022/08/20 04:00:34;;;;;;;;;;;17.10;99.90;;;;;;5057257;28;20047;-74
2022/08/20 04:03:00;;;;;;;5.18;2.80;;;17.20;99.90;;;;;;5056775;28;19923;-78
2022/08/20 04:05:27;;;;;;;4.85;3.20;;;17.00;99.90;;;;;;5056422;28;20047;-77
2022/08/20 04:07:53;;;;;;;7.88;3.05;;;17.00;99.90;;;;;;5040010;28;20032;-77
2022/08/20 04:10:19;;;;;;;10.55;2.88;;;17.00;99.90;;;;;;5056466;28;20044;-78
2022/08/20 04:12:44;;;;;;;5.10;2.42;;;16.90;99.90;;;;;;5056256;28;20042;-74
2022/08/20 04:15:14;;;;;;;3.90;2.35;;;17.00;99.90;;;;;;5023262;28;20392;-78
2022/08/20 04:17:42;;;;;;;3.22;2.35;;;16.80;99.90;;;;;;5056647;28;20045;-73
2022/08/20 04:20:10;;;;;;;4.32;2.72;;;16.70;99.90;;;;;;5056262;28;20407;-78
2022/08/20 04:22:36;;;;;;;4.30;2.67;;;16.80;99.90;;;;;;5056172;28;20399;-75
2022/08/20 04:25:10;;;;;;;4.45;2.47;;;16.80;99.90;;;;;;5056018;28;20036;-73
2022/08/20 04:27:37;;;;;;;5.15;2.63;;;16.70;99.90;;;;;;5056323;28;20036;-73
2022/08/20 04:30:06;;;;;;;3.60;2.22;;;16.70;99.90;;;;;;5023105;28;20117;-74
2022/08/20 04:32:35;;;;;;;6.53;2.78;;;16.80;99.90;;;;;;5039313;28;20079;-77
2022/08/20 04:35:06;;;;;;;5.07;2.70;;;16.80;99.90;;;;;;5039693;28;20455;-78
2022/08/20 04:37:32;;;;;;;2.53;1.85;;;16.70;99.90;;;;;;5020038;28;20064;-74
2022/08/20 04:42:51;;;;;;;6.65;2.30;;;16.60;99.90;;;;;;5052711;28;20093;-77
2022/08/20 04:45:17;;;;;;;4.15;2.15;;;16.60;99.90;;;;;;5052310;28;20045;-77
2022/08/20 04:47:43;;;;;;;4.03;2.40;;;16.50;99.90;;;;;;5035903;28;20393;-79
2022/08/20 04:50:10;;;;;;;3.30;2.20;;;17.20;99.90;;;;;;5052366;28;20388;-78
2022/08/20 04:52:36;;;;;;;3.67;2.53;;;16.90;99.90;;;;;;5052599;28;20048;-75
2022/08/20 04:55:04;;;;;;;5.00;2.50;;;16.80;99.90;;;;;;5035007;28;20033;-77
2022/08/20 04:57:30;;;;;;;4.20;2.58;;;16.90;99.90;;;;;;5036151;28;20128;-78
2022/08/20 04:59:55;;;;;;;3.97;2.53;;;16.70;99.90;;;;;;5035501;28;20530;-75
2022/08/20 05:02:21;;;;;;;3.90;2.10;;;16.60;99.90;;;;;;5019134;28;20083;-74
2022/08/20 05:04:48;;;;;;;4.65;2.42;;;16.80;99.90;;;;;;5052085;28;20439;-78
2022/08/20 05:07:15;;;;;;;4.97;2.25;;;16.80;99.90;;;;;;5052000;28;20049;-78
2022/08/20 05:09:42;;;;;;;2.50;2.03;;;16.80;99.90;;;;;;5051977;28;20091;-74
2022/08/20 05:12:08;;;;;;;3.50;2.08;;;16.60;99.90;;;;;;5035472;28;20045;-77
2022/08/20 05:14:34;;;;;;;3.60;2.03;;;16.80;99.90;;;;;;5051922;28;20045;-75
2022/08/20 05:17:04;;;;;;;4.10;1.92;;;16.60;99.90;;;;;;5035320;28;20124;-77
2022/08/20 05:19:31;;;;;;;4.60;1.75;;;16.80;99.90;;;;;;5035520;28;20499;-75
2022/08/20 05:21:57;;;;;;;6.82;2.30;;;16.70;99.90;;;;;;5051851;28;20372;-75
2022/08/20 05:24:23;;;;;;;3.78;1.92;;;16.90;99.90;;;;;;5052091;28;20098;-74
2022/08/20 05:26:49;;;;;;;3.60;1.70;;;16.70;99.90;;;;;;5051761;28;20123;-78
2022/08/20 05:29:15;;;;;;;4.68;2.00;;;16.70;99.90;;;;;;5052175;28;20464;-74
2022/08/20 05:31:42;;;;;;;2.92;1.52;;;16.70;99.90;;;;;;5018670;28;20384;-78
2022/08/20 05:34:09;;;;;;;2.05;1.80;;;16.80;99.90;;;;;;5051656;28;20037;-77
2022/08/20 05:36:37;;;;;;;4.22;1.75;;;16.60;99.90;;;;;;5051711;28;20123;-77
2022/08/20 05:39:03;;;;;;;3.00;1.75;;;16.80;99.90;;;;;;5051477;28;20049;-74
2022/08/20 05:41:28;;;;;;;3.90;1.55;;;16.60;99.90;;;;;;5051538;28;20128;-78
2022/08/20 05:43:54;;;;;;;3.97;1.70;;;16.60;99.90;;;;;;5051661;28;20041;-74
2022/08/20 05:46:21;;;;;;;3.15;1.73;;;16.80;99.90;;;;;;5035246;28;20045;-74
2022/08/20 05:48:47;;;;;;;5.30;1.52;;;16.70;99.90;;;;;;5035002;28;20068;-74
2022/08/20 05:51:14;;;;;;;2.80;1.60;;;16.60;99.90;;;;;;5034895;28;20041;-73
2022/08/20 05:53:40;;;;;;;4.82;2.03;;;17.00;99.90;;;;;;5035332;28;20049;-74
2022/08/20 05:56:06;;;;;;;2.67;1.63;;;16.80;99.90;;;;;;5051719;28;20067;-76
2022/08/20 05:58:32;;;;;;;3.30;1.58;;;16.70;99.90;;;;;;5035300;28;20037;-76
2022/08/20 06:00:58;;;;;;;1.65;1.40;;;16.90;99.90;;;;;;5034894;28;20124;-75
2022/08/20 06:06:09;;;;;;;1.48;1.15;;;16.90;99.90;;;;;;5037666;28;20057;-75
2022/08/20 06:08:35;;;;;;;5.10;1.60;;;16.90;99.90;;;;;;5055661;28;20098;-77
2022/08/20 06:11:02;;;;;;;2.42;1.50;;;17.10;99.90;;;;;;5056192;28;20127;-75
2022/08/20 06:13:27;;;;;;;2.92;1.60;;;17.00;99.90;;;;;;5039141;28;20041;-78
2022/08/20 06:15:55;;;;;;;2.92;1.80;;;17.10;99.90;;;;;;5038549;28;20047;-79
2022/08/20 06:18:21;;;;;;;3.08;1.20;;;17.10;99.90;;;;;;5038668;28;20455;-80
2022/08/20 06:20:48;;;;;;;4.10;1.27;;;17.20;99.90;;;;;;5057327;28;20120;-74
2022/08/20 06:23:14;;;;;;;3.92;1.70;;;17.20;99.90;;;;;;5055446;28;20041;-79
2022/08/20 06:25:40;;;;;;;1.60;1.25;;;17.10;99.90;;;;;;5022020;28;20067;-75
2022/08/20 06:28:05;;;;;;;6.00;1.67;;;17.20;99.90;;;;;;5038319;28;20048;-81
2022/08/20 06:30:32;;;;;;;2.15;1.42;;;17.30;99.90;;;;;;5038372;28;20128;-80
2022/08/20 06:32:58;;;;;;;2.67;1.33;;;17.70;99.90;;;;;;5054716;28;20091;-78
2022/08/20 06:35:24;;;;;;;1.75;1.40;;;17.60;99.90;;;;;;5021802;28;20032;-78
2022/08/20 06:37:51;;;;;;;2.70;1.70;;;17.50;99.90;;;;;;5038178;28;20041;-72
2022/08/20 06:40:23;;;;;;;1.63;1.23;;;17.50;99.90;;;;;;5038388;28;20044;-78
2022/08/20 06:42:50;;;;;;;2.45;1.40;;;17.70;99.90;;;;;;5038072;28;20420;-79
2022/08/20 06:45:24;;;;;;;1.30;1.10;;;17.80;99.90;;;;;;5055001;28;20052;-75
2022/08/20 06:47:51;;;;;;;3.95;1.23;;;;;;;;;;5054601;28;20048;-78
2022/08/20 06:50:20;;;;;;;3.03;1.23;;;17.80;99.90;;;;;;5037978;28;20041;-76
2022/08/20 06:52:46;;;;;;;4.38;1.02;;;17.90;99.90;;;;;;5054774;28;20059;-80
2022/08/20 06:55:14;;;;;;;4.10;1.35;;;18.20;99.90;;;;;;5054571;28;20045;-80
2022/08/20 06:57:40;;;;;;;1.67;1.02;;;18.20;99.90;;;;;;5054632;28;20040;-81
2022/08/20 07:00:11;;;;;;;4.85;1.10;;;18.00;99.90;;;;;;5038062;28;20557;-74
2022/08/20 07:02:36;;;;;;;;;;;18.20;99.90;;;;;;5038244;28;20075;-78
2022/08/20 07:05:04;;;;;;;1.27;0.88;;;18.40;99.90;;;;;;5021348;28;20348;-75
2022/08/20 07:07:30;;;;;;;5.63;1.20;;;18.30;99.90;;;;;;5037935;28;20503;-81
2022/08/20 07:10:04;;;;;;;2.40;0.85;;;18.70;99.90;;;;;;5054188;28;20033;-78
2022/08/20 07:12:30;;;;;;;2.17;1.00;;;;;;;;;;5037519;28;20045;-76
2022/08/20 07:14:56;;;;;;;2.17;1.00;;;18.90;99.90;;;;;;5021102;28;20040;-77
2022/08/20 07:17:21;;;;;;;1.65;0.63;;;18.90;99.90;;;;;;5020718;28;20033;-78
2022/08/20 07:19:47;;;;;;;1.15;0.55;;;19.00;99.90;;;;;;5053054;28;20044;-75
2022/08/20 07:22:13;;;;;;;2.58;0.50;;;19.00;99.90;;;;;;5037740;28;20037;-78
2022/08/20 07:24:39;;;;;;;1.75;0.63;;;19.10;99.90;;;;;;5005578;28;20041;-76
2022/08/20 07:27:05;;;;;;;1.23;0.63;;;19.30;99.90;;;;;;5021180;28;20544;-76
2022/08/20 07:32:33;;;;;;;1.50;0.77;;;19.30;99.90;;;;;;5053879;28;20070;-75
2022/08/20 07:32:35;;;;;;;1.27;0.90;;;19.30;99.90;;;;;;5040448;28;20114;-76
2022/08/20 07:35:09;;;;;;;1.15;0.60;;;19.40;99.90;;;;;;5054534;28;20520;-79
2022/08/20 07:37:40;;;;;;;1.77;0.70;;;19.40;99.90;;;;;;5037096;28;20048;-81
2022/08/20 07:40:10;;;;;;;2.55;0.80;;;19.60;99.90;;;;;;5053903;28;20041;-76
2022/08/20 07:42:38;;;;;;;4.72;0.80;;;19.60;99.90;;;;;;5037460;28;20501;-76
2022/08/20 07:45:09;;;;;;;2.17;0.60;;;19.80;99.90;;;;;;5053619;28;20117;-76
2022/08/20 07:47:39;;;;;;;2.95;0.68;;;19.90;99.90;;;;;;5053602;28;20045;-75
2022/08/20 07:50:06;;;;;;;1.65;0.65;;;20.00;99.90;;;;;;5037198;28;20041;-76
2022/08/20 07:52:34;;;;;;;0.50;0.30;;;20.10;99.90;;;;;;5053649;28;20036;-76
2022/08/20 07:55:05;;;;;;;1.55;0.60;;;20.00;99.90;;;;;;5020763;28;20582;-74
2022/08/20 07:57:31;;;;;;;1.98;0.57;;;20.00;99.90;;;;;;5036657;28;20041;-82
2022/08/20 07:59:57;;;;;;;1.33;0.30;;;20.10;99.90;;;;;;5036633;28;20095;-79
2022/08/20 08:02:25;;;;;;;0.93;0.60;;;20.10;99.90;;;;;;5053488;28;20045;-72
2022/08/20 08:04:50;;;;;;;2.38;0.55;;;20.20;99.90;;;;;;5036637;28;20037;-78
2022/08/20 08:07:16;;;;;;;3.97;0.60;;;20.30;99.90;;;;;;5020262;28;20408;-80
2022/08/20 08:09:44;;;;;;;1.50;0.40;;;20.40;99.90;;;;;;5036743;28;20076;-81
2022/08/20 08:12:12;;;;;;;1.17;0.28;;;20.50;99.90;;;;;;5053246;28;20095;-78
2022/08/20 08:14:39;;;;;;;2.28;0.50;;;20.60;99.90;;;;;;5052892;28;20055;-78
2022/08/20 08:17:08;;;;;;;2.30;0.20;;;20.50;99.90;;;;;;5036420;28;20072;-79
2022/08/20 08:19:41;;;;;;;0.85;0.38;;;20.50;99.90;;;;;;5036373;28;20078;-76
2022/08/20 08:22:11;;;;;;;0.95;0.40;;;20.40;99.90;;;;;;5052856;28;20094;-76
2022/08/20 08:24:38;;;;;;;0.30;0.20;;;20.40;99.90;;;;;;5036743;28;20037;-79
2022/08/20 08:27:04;;;;;;;0.77;0.40;;;20.50;99.90;;;;;;5053094;28;20485;-79
2022/08/20 08:29:30;;;;;;;1.45;0.22;;;20.70;99.90;;;;;;5036441;28;20052;-81
2022/08/20 08:31:56;;;;;;;1.63;0.47;;;20.70;99.90;;;;;;5052956;28;20049;-75
2022/08/20 08:34:24;;;;;;;0.93;0.47;;;20.60;99.90;;;;;;5035912;28;20041;-82
2022/08/20 08:36:51;;;;;;;2.65;0.43;;;20.70;99.90;;;;;;5052725;28;20178;-83
2022/08/20 08:39:17;;;;;;;2.03;0.30;;;20.80;99.90;;;;;;5035985;28;20061;-76
2022/08/20 08:41:48;;;;;;;1.33;0.50;;;20.90;99.90;;;;;;5052543;28;20095;-77
2022/08/20 08:44:22;;;;;;;8.40;0.50;;;21.10;99.90;;;;;;5035818;28;20052;-76
2022/08/20 08:47:01;;;;;;;1.55;0.60;;;21.10;99.90;;;;;;5052600;28;20056;-78
2022/08/20 08:49:33;;;;;;;1.40;0.40;;;21.20;99.90;;;;;;5035696;28;20176;-75
2022/08/20 08:52:06;;;;;;;0.95;0.57;;;21.30;99.90;;;;;;5035778;28;20052;-75
2022/08/20 08:54:33;;;;;;;0.90;0.30;;;21.30;99.90;;;;;;5052127;28;20484;-78
2022/08/20 08:57:00;;;;;;;2.80;0.40;;;21.30;99.90;;;;;;5019253;28;20043;-75
2022/08/20 08:59:29;;;;;;;1.25;0.40;;;21.30;99.90;;;;;;5052077;28;20444;-78
2022/08/20 09:01:58;;;;;;;0.32;0.30;;;21.40;99.90;;;;;;5035729;28;20045;-78
2022/08/20 09:04:32;;;;;;;1.95;0.60;;;21.50;99.90;;;;;;5052081;28;20506;-74
2022/08/20 09:07:00;;;;;;;1.33;0.35;;;21.50;99.90;;;;;;5052028;28;20044;-73
2022/08/20 09:09:36;;;;;;;0.50;0.30;;;21.50;99.90;;;;;;5035353;28;20043;-77
2022/08/20 09:12:06;;;;;;;1.73;0.35;;;21.60;99.90;;;;;;5051865;28;20056;-75
2022/08/20 09:14:32;;;;;;;1.35;0.43;;;21.60;99.90;;;;;;5035162;28;20062;-82
2022/08/20 09:16:58;;;;;;;3.70;0.50;;;21.50;99.90;;;;;;5051899;28;20155;-83
2022/08/20 09:19:24;;;;;;;1.85;0.47;;;21.60;99.90;;;;;;5002681;28;20056;-80
2022/08/20 09:21:49;;;;;;;0.30;0.30;;;21.60;99.90;;;;;;5018981;28;20048;-81
2022/08/20 09:24:15;;;;;;;0.20;0.20;;;21.40;99.90;;;;;;5019172;28;20079;-78
2022/08/20 09:26:41;;;;;;;2.17;0.38;;;21.50;99.90;;;;;;5035542;28;20491;-79
2022/08/20 09:29:06;;;;;;;2.85;0.40;;;21.60;99.90;;;;;;5035268;28;20044;-80
2022/08/20 09:31:32;;;;;;;4.30;0.65;;;21.60;99.90;;;;;;5019122;28;20045;-75
2022/08/20 09:33:58;;;;;;;0.57;0.50;;;21.70;99.90;;;;;;5002382;28;20156;-79
2022/08/20 09:36:23;;;;;;;0.57;0.25;;;21.80;99.90;;;;;;5035541;28;20040;-78
2022/08/20 09:38:49;;;;;;;0.30;0.20;;;21.80;99.90;;;;;;5051574;28;20095;-81
2022/08/20 09:41:15;;;;;;;1.02;0.50;;;21.70;99.90;;;;;;5053140;28;20043;-77
2022/08/20 09:43:40;;;;;;;3.40;0.50;;;21.70;99.90;;;;;;5041441;28;20110;-75
2022/08/20 09:46:06;;;;;;;1.23;0.40;;;21.80;99.90;;;;;;5058218;28;20049;-77
2022/08/20 09:48:32;;;;;;;1.83;0.30;;;22.00;99.90;;;;;;5041974;28;20041;-83
2022/08/20 09:50:57;;;;;;;1.88;0.38;;;22.10;99.90;;;;;;5041588;28;20041;-81
2022/08/20 09:53:23;;;;;;;3.53;0.35;;;22.20;99.90;;;;;;5058185;28;20491;-73
2022/08/20 09:55:51;;;;;;;0.73;0.38;;;22.30;99.90;;;;;;5058105;28;20408;-78
2022/08/20 09:58:48;;;;;;;1.35;0.32;;;22.50;99.90;;;;;;5058183;28;20033;-80
2022/08/20 10:01:16;;;;;;;0.93;0.25;;;22.40;99.90;;;;;;5042011;28;20041;-78
2022/08/20 10:03:44;;;;;;;0.98;0.30;;;22.50;99.90;;;;;;5041454;28;20128;-78
2022/08/20 10:06:10;;;;;;;1.35;0.43;;;22.50;99.90;;;;;;5041393;28;20041;-74
2022/08/20 10:08:36;;;;;;;3.35;0.47;;;22.60;99.90;;;;;;5041354;28;20124;-76
2022/08/20 10:11:03;;;;;;;2.13;0.50;;;22.70;99.90;;;;;;5041355;28;20480;-77
2022/08/20 10:13:28;;;;;;;0.65;0.40;;;22.90;99.90;;;;;;5041465;28;20048;-75
2022/08/20 10:15:54;;;;;;;2.05;0.55;;;23.10;99.90;;;;;;5008482;28;20556;-77
2022/08/20 10:18:20;;;;;;;0.40;0.30;;;23.00;99.90;;;;;;5058265;28;20395;-72
2022/08/20 10:20:45;;;;;;;3.83;0.50;;;23.00;99.90;;;;;;5057921;28;20080;-73
2022/08/20 10:23:11;;;;;;;0.25;0.20;;;22.80;99.90;;;;;;5041359;28;20551;-75
2022/08/20 10:25:37;;;;;;;2.70;0.43;;;22.70;99.90;;;;;;5057882;28;20094;-75
2022/08/20 10:28:04;;;;;;;0.60;0.30;;;22.70;99.90;;;;;;5041452;28;20135;-75
2022/08/20 10:30:29;;;;;;;1.58;0.60;;;22.90;99.90;;;;;;5041473;28;20130;-75
2022/08/20 10:32:55;;;;;;;1.55;0.80;;;23.00;99.90;;;;;;5041352;28;20079;-72
2022/08/20 10:35:21;;;;;;;1.70;0.50;;;23.20;99.90;;;;;;5041150;28;20039;-79
2022/08/20 10:37:47;;;;;;;0.45;0.40;;;23.30;99.90;;;;;;5041039;28;20080;-80
2022/08/20 10:40:14;;;;;;;1.23;0.60;;;23.30;99.90;;;;;;5024888;28;20051;-78
2022/08/20 10:42:42;;;;;;;0.95;0.45;;;23.30;99.90;;;;;;5025305;28;20045;-84
2022/08/20 10:45:12;;;;;;;0.57;0.40;;;23.10;99.90;;;;;;5008576;28;20137;-77
2022/08/20 10:47:38;;;;;;;2.58;0.47;;;22.90;99.90;;;;;;5041644;28;20130;-73
2022/08/20 10:50:08;;;;;;;1.08;0.50;;;22.80;99.90;;;;;;5057802;28;20431;-76
2022/08/20 10:52:33;;;;;;;2.17;0.70;;;22.70;99.90;;;;;;5040104;28;20048;-74
2022/08/20 10:54:59;;;;;;;1.60;0.57;;;22.60;99.90;;;;;;5054731;28;20395;-75
2022/08/20 10:57:27;;;;;;;0.98;0.43;;;22.40;99.90;;;;;;5038093;28;20032;-74
2022/08/20 10:59:56;;;;;;;2.13;0.70;;;22.20;99.90;;;;;;5054401;28;20078;-82
2022/08/20 11:02:22;;;;;;;1.00;0.40;;;22.10;99.90;;;;;;5037948;28;20041;-71
2022/08/20 11:04:49;;;;;;;2.08;0.88;;;21.90;99.90;;;;;;5038436;28;20049;-75
2022/08/20 11:07:27;;;;;;;1.35;0.50;;;22.10;99.90;;;;;;5055263;28;20045;-76
2022/08/20 11:09:54;;;;;;;3.13;0.47;;;22.20;99.90;;;;;;5037853;28;20047;-82
2022/08/20 11:12:20;;;;;;;1.75;0.75;;;22.50;99.90;;;;;;5037599;28;20049;-75
2022/08/20 11:14:48;;;;;;;0.75;0.40;;;22.80;99.90;;;;;;5054473;28;20063;-78
2022/08/20 11:17:22;;;;;;;1.35;0.65;;;23.00;99.90;;;;;;5054090;28;20045;-71
2022/08/20 11:19:48;;;;;;;0.88;0.65;;;23.10;99.80;;;;;;5054345;28;20072;-75
2022/08/20 11:22:14;;;;;;;0.60;0.43;;;23.30;99.70;;;;;;5054723;28;20044;-76
2022/08/20 11:24:40;;;;;;;1.35;0.85;;;23.40;99.70;;;;;;5054998;28;20102;-76
2022/08/20 11:27:07;;;;;;;1.95;0.55;;;23.60;98.40;;;;;;5023035;28;20532;-78
2022/08/20 11:29:34;;;;;;;0.68;0.40;;;23.60;95.10;;;;;;5053962;28;20408;-75
2022/08/20 11:32:00;;;;;;;5.82;0.60;;;23.50;96.30;;;;;;5037228;28;20040;-76
2022/08/20 11:34:26;;;;;;;1.20;0.55;;;23.50;98.50;;;;;;5053815;28;20045;-76
2022/08/20 11:36:52;;;;;;;3.40;0.80;;;23.20;96.80;;;;;;5053629;28;20495;-80
2022/08/20 11:39:18;;;;;;;1.63;0.50;;;23.10;98.10;;;;;;5053491;28;20136;-76
2022/08/20 11:41:44;;;;;;;2.13;0.65;;;22.90;97.70;;;;;;5037183;28;20531;-78
2022/08/20 11:44:09;;;;;;;1.63;0.68;;;22.70;97.70;;;;;;5037391;28;20037;-78
2022/08/20 11:46:36;;;;;;;0.63;0.52;;;22.70;98.20;;;;;;5036903;28;20045;-79
2022/08/20 11:49:02;;;;;;;3.20;0.75;;;22.60;97.80;;;;;;5036843;28;20041;-79
2022/08/20 11:51:28;;;;;;;2.38;0.73;;;22.60;98.90;;;;;;5020785;28;20396;-78
2022/08/20 11:53:53;;;;;;;1.17;0.50;;;22.70;98.80;;;;;;5053461;28;20045;-75
2022/08/20 11:56:20;;;;;;;0.50;0.40;;;22.90;97.60;;;;;;5053460;28;20077;-73
2022/08/20 11:58:46;;;;;;;0.70;0.70;;;23.00;97.10;;;;;;5020381;28;20403;-76
2022/08/20 12:01:12;;;;;;;1.38;0.57;;;22.90;94.90;;;;;;5053397;28;20116;-76
2022/08/20 12:03:38;;;;;;;0.70;0.57;;;22.90;96.50;;;;;;5036736;28;20105;-77
2022/08/20 12:06:04;;;;;;;1.25;0.75;;;22.90;96.70;;;;;;5052959;28;20037;-72
2022/08/20 12:08:29;;;;;;;0.82;0.35;;;22.70;97.30;;;;;;5004003;28;20040;-77
2022/08/20 12:10:57;;;;;;;2.70;0.60;;;22.70;96.20;;;;;;5036749;28;20146;-74
2022/08/20 12:13:23;;;;;;;1.40;0.70;;;22.90;95.40;;;;;;5036690;28;20032;-80
2022/08/20 12:15:49;;;;;;;0.65;0.57;;;22.90;95.90;;;;;;5020263;28;20040;-78
2022/08/20 12:18:15;;;;;;;1.85;0.60;;;22.90;95.90;;;;;;5020062;28;20044;-79
2022/08/20 12:20:41;;;;;;;2.30;0.80;;;22.90;95.80;;;;;;5036519;28;20048;-74
2022/08/20 12:23:07;;;;;;;1.23;0.45;;;22.80;96.20;;;;;;5052790;28;20044;-80
2022/08/20 12:25:33;;;;;;;1.05;0.60;;;22.80;96.00;;;;;;5052788;28;20131;-75
2022/08/20 12:27:59;;;;;;;3.08;0.80;;;22.80;97.20;;;;;;5019575;28;20051;-76
2022/08/20 12:30:25;;;;;;;2.53;0.80;;;22.70;96.20;;;;;;5052676;28;20099;-81
2022/08/20 12:32:51;;;;;;;1.00;0.47;;;22.70;95.60;;;;;;5052707;28;20041;-81
2022/08/20 12:35:18;;;;;;;3.45;0.98;;;22.80;97.80;;;;;;5035960;28;20068;-76
2022/08/20 12:37:45;;;;;;;1.10;0.60;;;22.90;96.70;;;;;;5035764;28;20415;-74
2022/08/20 12:40:14;;;;;;;1.55;0.88;;;22.90;95.90;;;;;;5036298;28;20531;-75
2022/08/20 12:42:41;;;;;;;1.17;0.63;;;22.90;97.10;;;;;;5052726;28;20044;-74
2022/08/20 12:45:08;;;;;;;0.95;0.52;;;23.00;96.60;;;;;;5052620;28;20041;-76
2022/08/20 12:47:39;;;;;;;1.42;0.55;;;23.10;97.10;;;;;;5019477;28;20068;-75
2022/08/20 12:50:18;;;;;;;3.25;1.05;;;23.10;96.10;;;;;;5052259;28;20407;-74
2022/08/20 12:52:45;;;;;;;1.58;0.60;;;23.10;94.20;;;;;;5052283;28;20072;-76
2022/08/20 12:55:14;;;;;;;1.05;0.57;;;23.10;96.20;;;;;;5035931;28;20471;-75
2022/08/20 12:57:43;;;;;;;2.25;1.02;;;22.90;95.60;;;;;;5052073;28;20037;-71
2022/08/20 13:00:20;;;;;;;7.45;0.80;;;22.80;95.40;;;;;;5052000;28;20061;-75
2022/08/20 13:02:47;;;;;;;0.82;0.50;;;23.00;97.10;;;;;;5052407;28;20497;-77
2022/08/20 13:05:14;;;;;;;0.85;0.60;;;23.20;96.80;;;;;;5052352;28;20538;-77
2022/08/20 13:07:41;;;;;;;1.02;0.65;;;23.30;96.90;;;;;;5035656;28;20044;-73
2022/08/20 13:10:10;;;;;;;1.70;0.70;;;23.40;96.80;;;;;;5035381;28;20435;-72